sensor_id;sensor_type;location;lat;lon;timestamp;P1;durP1;ratioP1;P2;durP2;ratioP2
8171;SDS011;4127;47.908;10.850;2022-10-29T00:00:40;7.47;;;2.27;;
8171;SDS011;4127;47.908;10.850;2022-10-29T00:03:08;6.50;;;2.80;;
8171;SDS011;4127;47.908;10.850;2022-10-29T00:05:35;5.47;;;2.77;;
8171;SDS011;4127;47.908;10.850;2022-10-29T00:08:02;5.13;;;2.80;;
8171;SDS011;4127;47.908;10.850;2022-10-29T00:10:29;5.93;;;2.93;;
8171;SDS011;4127;47.908;10.850;2022-10-29T00:12:58;4.80;;;2.43;;
8171;SDS011;4127;47.908;10.850;2022-10-29T00:15:27;7.50;;;2.97;;
8171;SDS011;4127;47.908;10.850;2022-10-29T00:17:54;8.27;;;3.17;;
8171;SDS011;4127;47.908;10.850;2022-10-29T00:20:21;5.70;;;2.87;;
8171;SDS011;4127;47.908;10.850;2022-10-29T00:22:51;9.40;;;3.30;;
8171;SDS011;4127;47.908;10.850;2022-10-29T00:25:19;6.07;;;2.70;;
8171;SDS011;4127;47.908;10.850;2022-10-29T00:27:46;10.43;;;3.07;;
8171;SDS011;4127;47.908;10.850;2022-10-29T00:30:13;8.60;;;2.93;;
8171;SDS011;4127;47.908;10.850;2022-10-29T00:32:39;6.87;;;2.50;;
8171;SDS011;4127;47.908;10.850;2022-10-29T00:35:06;5.47;;;2.57;;
8171;SDS011;4127;47.908;10.850;2022-10-29T00:37:33;5.50;;;2.63;;
8171;SDS011;4127;47.908;10.850;2022-10-29T00:40:00;7.20;;;2.60;;
8171;SDS011;4127;47.908;10.850;2022-10-29T00:42:27;7.97;;;2.83;;
8171;SDS011;4127;47.908;10.850;2022-10-29T00:44:54;6.53;;;2.50;;
8171;SDS011;4127;47.908;10.850;2022-10-29T00:47:28;6.70;;;2.77;;
8171;SDS011;4127;47.908;10.850;2022-10-29T00:50:01;9.13;;;3.30;;
8171;SDS011;4127;47.908;10.850;2022-10-29T00:52:38;8.13;;;2.80;;
8171;SDS011;4127;47.908;10.850;2022-10-29T00:55:09;5.93;;;2.40;;
8171;SDS011;4127;47.908;10.850;2022-10-29T00:57:42;8.40;;;3.10;;
8171;SDS011;4127;47.908;10.850;2022-10-29T01:00:14;6.57;;;2.70;;
8171;SDS011;4127;47.908;10.850;2022-10-29T01:02:42;6.87;;;3.10;;
8171;SDS011;4127;47.908;10.850;2022-10-29T01:05:11;6.97;;;3.00;;
8171;SDS011;4127;47.908;10.850;2022-10-29T01:07:43;5.30;;;3.27;;
8171;SDS011;4127;47.908;10.850;2022-10-29T01:10:11;10.37;;;3.07;;
8171;SDS011;4127;47.908;10.850;2022-10-29T01:40:45;6.50;;;2.97;;
8171;SDS011;4127;47.908;10.850;2022-10-29T01:43:35;7.03;;;2.67;;
8171;SDS011;4127;47.908;10.850;2022-10-29T01:46:20;8.13;;;2.77;;
8171;SDS011;4127;47.908;10.850;2022-10-29T01:49:17;7.80;;;2.77;;
8171;SDS011;4127;47.908;10.850;2022-10-29T01:51:49;5.50;;;2.90;;
8171;SDS011;4127;47.908;10.850;2022-10-29T01:54:17;7.50;;;2.67;;
8171;SDS011;4127;47.908;10.850;2022-10-29T01:56:52;5.80;;;2.27;;
8171;SDS011;4127;47.908;10.850;2022-10-29T01:59:23;5.80;;;2.87;;
8171;SDS011;4127;47.908;10.850;2022-10-29T02:02:14;8.00;;;2.90;;
8171;SDS011;4127;47.908;10.850;2022-10-29T02:10:43;7.90;;;3.20;;
8171;SDS011;4127;47.908;10.850;2022-10-29T02:13:16;7.77;;;3.33;;
8171;SDS011;4127;47.908;10.850;2022-10-29T02:15:52;6.43;;;2.60;;
8171;SDS011;4127;47.908;10.850;2022-10-29T02:18:21;5.40;;;3.00;;
8171;SDS011;4127;47.908;10.850;2022-10-29T02:20:48;5.47;;;3.00;;
8171;SDS011;4127;47.908;10.850;2022-10-29T02:23:15;8.53;;;3.10;;
8171;SDS011;4127;47.908;10.850;2022-10-29T02:25:42;7.63;;;3.00;;
8171;SDS011;4127;47.908;10.850;2022-10-29T02:28:09;5.57;;;3.10;;
8171;SDS011;4127;47.908;10.850;2022-10-29T02:30:36;8.90;;;3.00;;
8171;SDS011;4127;47.908;10.850;2022-10-29T02:33:03;6.93;;;3.07;;
8171;SDS011;4127;47.908;10.850;2022-10-29T02:35:29;9.30;;;2.60;;
8171;SDS011;4127;47.908;10.850;2022-10-29T02:37:56;7.13;;;3.23;;
8171;SDS011;4127;47.908;10.850;2022-10-29T02:40:23;7.87;;;3.17;;
8171;SDS011;4127;47.908;10.850;2022-10-29T02:42:49;8.57;;;3.07;;
8171;SDS011;4127;47.908;10.850;2022-10-29T02:45:16;5.27;;;3.00;;
8171;SDS011;4127;47.908;10.850;2022-10-29T02:47:43;4.97;;;3.00;;
8171;SDS011;4127;47.908;10.850;2022-10-29T02:50:09;4.80;;;2.63;;
8171;SDS011;4127;47.908;10.850;2022-10-29T02:52:36;5.07;;;2.53;;
8171;SDS011;4127;47.908;10.850;2022-10-29T02:55:03;4.40;;;2.57;;
8171;SDS011;4127;47.908;10.850;2022-10-29T02:57:30;5.53;;;2.67;;
8171;SDS011;4127;47.908;10.850;2022-10-29T02:59:56;6.60;;;2.70;;
8171;SDS011;4127;47.908;10.850;2022-10-29T03:02:23;6.00;;;2.30;;
8171;SDS011;4127;47.908;10.850;2022-10-29T03:04:50;5.07;;;2.50;;
8171;SDS011;4127;47.908;10.850;2022-10-29T03:07:17;5.50;;;2.57;;
8171;SDS011;4127;47.908;10.850;2022-10-29T03:09:43;6.60;;;2.93;;
8171;SDS011;4127;47.908;10.850;2022-10-29T03:12:10;6.13;;;2.57;;
8171;SDS011;4127;47.908;10.850;2022-10-29T03:14:37;12.73;;;3.00;;
8171;SDS011;4127;47.908;10.850;2022-10-29T03:17:03;6.77;;;2.87;;
8171;SDS011;4127;47.908;10.850;2022-10-29T03:19:31;3.97;;;2.83;;
8171;SDS011;4127;47.908;10.850;2022-10-29T03:21:58;4.00;;;2.40;;
8171;SDS011;4127;47.908;10.850;2022-10-29T03:24:24;5.70;;;2.77;;
8171;SDS011;4127;47.908;10.850;2022-10-29T03:26:51;5.73;;;2.77;;
8171;SDS011;4127;47.908;10.850;2022-10-29T03:29:18;7.23;;;2.97;;
8171;SDS011;4127;47.908;10.850;2022-10-29T03:31:44;7.27;;;2.93;;
8171;SDS011;4127;47.908;10.850;2022-10-29T03:34:11;5.67;;;2.80;;
8171;SDS011;4127;47.908;10.850;2022-10-29T03:36:38;4.83;;;2.60;;
8171;SDS011;4127;47.908;10.850;2022-10-29T03:39:05;5.00;;;2.87;;
8171;SDS011;4127;47.908;10.850;2022-10-29T03:41:31;4.27;;;2.23;;
8171;SDS011;4127;47.908;10.850;2022-10-29T03:43:58;8.40;;;2.80;;
8171;SDS011;4127;47.908;10.850;2022-10-29T03:46:25;6.00;;;2.97;;
8171;SDS011;4127;47.908;10.850;2022-10-29T03:48:52;7.80;;;2.83;;
8171;SDS011;4127;47.908;10.850;2022-10-29T03:51:18;5.67;;;2.60;;
8171;SDS011;4127;47.908;10.850;2022-10-29T03:53:45;6.80;;;2.60;;
8171;SDS011;4127;47.908;10.850;2022-10-29T03:56:12;4.23;;;2.30;;
8171;SDS011;4127;47.908;10.850;2022-10-29T03:58:39;5.77;;;2.50;;
8171;SDS011;4127;47.908;10.850;2022-10-29T04:01:06;4.93;;;2.63;;
8171;SDS011;4127;47.908;10.850;2022-10-29T04:03:35;5.50;;;2.57;;
8171;SDS011;4127;47.908;10.850;2022-10-29T04:06:10;5.17;;;2.20;;
8171;SDS011;4127;47.908;10.850;2022-10-29T04:08:38;6.50;;;3.20;;
8171;SDS011;4127;47.908;10.850;2022-10-29T04:11:04;4.33;;;3.10;;
8171;SDS011;4127;47.908;10.850;2022-10-29T04:13:33;4.60;;;2.30;;
8171;SDS011;4127;47.908;10.850;2022-10-29T04:16:00;4.03;;;2.47;;
8171;SDS011;4127;47.908;10.850;2022-10-29T04:18:27;4.83;;;2.43;;
8171;SDS011;4127;47.908;10.850;2022-10-29T04:20:57;3.90;;;2.30;;
8171;SDS011;4127;47.908;10.850;2022-10-29T04:23:47;4.60;;;2.80;;
8171;SDS011;4127;47.908;10.850;2022-10-29T04:26:35;7.43;;;2.60;;
8171;SDS011;4127;47.908;10.850;2022-10-29T04:29:21;5.57;;;2.73;;
8171;SDS011;4127;47.908;10.850;2022-10-29T04:31:48;4.63;;;2.30;;
8171;SDS011;4127;47.908;10.850;2022-10-29T04:34:15;4.80;;;2.40;;
8171;SDS011;4127;47.908;10.850;2022-10-29T04:36:42;4.27;;;2.63;;
8171;SDS011;4127;47.908;10.850;2022-10-29T04:39:09;4.00;;;2.37;;
8171;SDS011;4127;47.908;10.850;2022-10-29T04:41:36;6.87;;;2.60;;
8171;SDS011;4127;47.908;10.850;2022-10-29T04:44:02;4.40;;;2.70;;
8171;SDS011;4127;47.908;10.850;2022-10-29T04:46:29;4.70;;;2.63;;
8171;SDS011;4127;47.908;10.850;2022-10-29T04:48:56;6.00;;;2.80;;
8171;SDS011;4127;47.908;10.850;2022-10-29T04:51:24;6.97;;;2.83;;
8171;SDS011;4127;47.908;10.850;2022-10-29T04:53:51;6.20;;;2.87;;
8171;SDS011;4127;47.908;10.850;2022-10-29T04:56:18;5.20;;;3.10;;
8171;SDS011;4127;47.908;10.850;2022-10-29T04:58:45;7.30;;;2.73;;
8171;SDS011;4127;47.908;10.850;2022-10-29T05:01:11;5.93;;;2.80;;
8171;SDS011;4127;47.908;10.850;2022-10-29T05:03:38;6.97;;;3.23;;
8171;SDS011;4127;47.908;10.850;2022-10-29T05:06:05;7.60;;;3.00;;
8171;SDS011;4127;47.908;10.850;2022-10-29T05:08:32;7.07;;;2.93;;
8171;SDS011;4127;47.908;10.850;2022-10-29T05:11:03;4.83;;;2.90;;
8171;SDS011;4127;47.908;10.850;2022-10-29T05:13:31;6.83;;;2.63;;
8171;SDS011;4127;47.908;10.850;2022-10-29T05:15:59;6.97;;;3.13;;
8171;SDS011;4127;47.908;10.850;2022-10-29T05:18:26;5.10;;;3.20;;
8171;SDS011;4127;47.908;10.850;2022-10-29T05:20:53;8.97;;;3.13;;
8171;SDS011;4127;47.908;10.850;2022-10-29T05:23:20;5.90;;;2.97;;
8171;SDS011;4127;47.908;10.850;2022-10-29T05:25:47;8.83;;;2.90;;
8171;SDS011;4127;47.908;10.850;2022-10-29T05:28:15;6.60;;;3.10;;
8171;SDS011;4127;47.908;10.850;2022-10-29T05:30:46;7.67;;;3.30;;
8171;SDS011;4127;47.908;10.850;2022-10-29T05:33:16;7.47;;;2.80;;
8171;SDS011;4127;47.908;10.850;2022-10-29T05:35:47;7.97;;;3.40;;
8171;SDS011;4127;47.908;10.850;2022-10-29T05:38:14;7.40;;;2.90;;
8171;SDS011;4127;47.908;10.850;2022-10-29T05:40:41;6.23;;;3.17;;
8171;SDS011;4127;47.908;10.850;2022-10-29T05:43:11;5.57;;;2.87;;
8171;SDS011;4127;47.908;10.850;2022-10-29T05:45:39;5.17;;;3.10;;
8171;SDS011;4127;47.908;10.850;2022-10-29T05:48:06;7.50;;;2.80;;
8171;SDS011;4127;47.908;10.850;2022-10-29T05:50:33;6.23;;;3.07;;
8171;SDS011;4127;47.908;10.850;2022-10-29T05:53:01;6.80;;;2.50;;
8171;SDS011;4127;47.908;10.850;2022-10-29T05:55:30;7.13;;;2.50;;
8171;SDS011;4127;47.908;10.850;2022-10-29T05:57:58;4.93;;;2.70;;
8171;SDS011;4127;47.908;10.850;2022-10-29T06:00:27;6.83;;;2.87;;
8171;SDS011;4127;47.908;10.850;2022-10-29T06:02:56;4.97;;;3.07;;
8171;SDS011;4127;47.908;10.850;2022-10-29T06:05:24;5.37;;;2.70;;
8171;SDS011;4127;47.908;10.850;2022-10-29T06:10:22;4.60;;;2.80;;
8171;SDS011;4127;47.908;10.850;2022-10-29T06:12:50;4.13;;;2.57;;
8171;SDS011;4127;47.908;10.850;2022-10-29T06:15:17;4.83;;;2.83;;
8171;SDS011;4127;47.908;10.850;2022-10-29T06:17:45;5.20;;;2.80;;
8171;SDS011;4127;47.908;10.850;2022-10-29T06:20:12;5.33;;;2.33;;
8171;SDS011;4127;47.908;10.850;2022-10-29T06:22:41;5.33;;;2.73;;
8171;SDS011;4127;47.908;10.850;2022-10-29T06:25:08;7.20;;;2.77;;
8171;SDS011;4127;47.908;10.850;2022-10-29T06:27:35;5.00;;;2.47;;
8171;SDS011;4127;47.908;10.850;2022-10-29T06:30:03;8.10;;;3.17;;
8171;SDS011;4127;47.908;10.850;2022-10-29T06:32:30;5.60;;;2.90;;
8171;SDS011;4127;47.908;10.850;2022-10-29T06:34:57;7.53;;;3.33;;
8171;SDS011;4127;47.908;10.850;2022-10-29T06:37:24;5.17;;;2.90;;
8171;SDS011;4127;47.908;10.850;2022-10-29T06:39:50;4.33;;;2.77;;
8171;SDS011;4127;47.908;10.850;2022-10-29T06:42:17;8.03;;;3.20;;
8171;SDS011;4127;47.908;10.850;2022-10-29T06:44:44;5.87;;;2.43;;
8171;SDS011;4127;47.908;10.850;2022-10-29T06:47:11;5.80;;;3.27;;
8171;SDS011;4127;47.908;10.850;2022-10-29T06:49:37;5.90;;;3.20;;
8171;SDS011;4127;47.908;10.850;2022-10-29T06:52:04;5.87;;;2.60;;
8171;SDS011;4127;47.908;10.850;2022-10-29T06:54:31;6.50;;;3.03;;
8171;SDS011;4127;47.908;10.850;2022-10-29T06:56:57;6.27;;;3.00;;
8171;SDS011;4127;47.908;10.850;2022-10-29T06:59:24;8.83;;;3.33;;
8171;SDS011;4127;47.908;10.850;2022-10-29T07:01:51;7.57;;;3.17;;
8171;SDS011;4127;47.908;10.850;2022-10-29T07:04:18;4.60;;;2.70;;
8171;SDS011;4127;47.908;10.850;2022-10-29T07:06:45;5.57;;;2.50;;
8171;SDS011;4127;47.908;10.850;2022-10-29T07:09:12;11.27;;;3.73;;
8171;SDS011;4127;47.908;10.850;2022-10-29T07:11:39;7.20;;;2.70;;
8171;SDS011;4127;47.908;10.850;2022-10-29T07:14:06;8.80;;;3.47;;
8171;SDS011;4127;47.908;10.850;2022-10-29T07:16:34;6.23;;;3.00;;
8171;SDS011;4127;47.908;10.850;2022-10-29T07:19:02;5.33;;;2.80;;
8171;SDS011;4127;47.908;10.850;2022-10-29T07:21:29;6.63;;;3.43;;
8171;SDS011;4127;47.908;10.850;2022-10-29T07:23:56;5.40;;;3.03;;
8171;SDS011;4127;47.908;10.850;2022-10-29T07:26:23;5.80;;;2.53;;
8171;SDS011;4127;47.908;10.850;2022-10-29T07:28:49;10.20;;;2.97;;
8171;SDS011;4127;47.908;10.850;2022-10-29T07:31:19;3.53;;;2.40;;
8171;SDS011;4127;47.908;10.850;2022-10-29T07:33:46;4.67;;;3.00;;
8171;SDS011;4127;47.908;10.850;2022-10-29T07:36:12;7.83;;;3.00;;
8171;SDS011;4127;47.908;10.850;2022-10-29T07:38:39;5.83;;;3.00;;
8171;SDS011;4127;47.908;10.850;2022-10-29T07:41:06;5.83;;;3.07;;
8171;SDS011;4127;47.908;10.850;2022-10-29T07:43:32;6.93;;;3.07;;
8171;SDS011;4127;47.908;10.850;2022-10-29T07:45:59;4.83;;;2.70;;
8171;SDS011;4127;47.908;10.850;2022-10-29T07:48:26;5.73;;;2.70;;
8171;SDS011;4127;47.908;10.850;2022-10-29T07:50:52;5.57;;;2.40;;
8171;SDS011;4127;47.908;10.850;2022-10-29T07:53:22;5.47;;;2.80;;
8171;SDS011;4127;47.908;10.850;2022-10-29T07:55:52;7.70;;;2.97;;
8171;SDS011;4127;47.908;10.850;2022-10-29T07:58:20;5.67;;;2.60;;
8171;SDS011;4127;47.908;10.850;2022-10-29T08:00:48;6.40;;;2.50;;
8171;SDS011;4127;47.908;10.850;2022-10-29T08:03:15;7.07;;;2.97;;
8171;SDS011;4127;47.908;10.850;2022-10-29T08:05:42;3.83;;;2.17;;
8171;SDS011;4127;47.908;10.850;2022-10-29T08:08:09;4.90;;;2.67;;
8171;SDS011;4127;47.908;10.850;2022-10-29T08:10:36;3.83;;;2.23;;
8171;SDS011;4127;47.908;10.850;2022-10-29T08:13:03;5.93;;;2.80;;
8171;SDS011;4127;47.908;10.850;2022-10-29T08:15:31;8.77;;;2.87;;
8171;SDS011;4127;47.908;10.850;2022-10-29T08:17:59;3.53;;;2.33;;
8171;SDS011;4127;47.908;10.850;2022-10-29T08:20:27;4.77;;;2.63;;
8171;SDS011;4127;47.908;10.850;2022-10-29T08:22:54;5.80;;;2.83;;
8171;SDS011;4127;47.908;10.850;2022-10-29T08:25:24;5.23;;;2.93;;
8171;SDS011;4127;47.908;10.850;2022-10-29T08:28:00;7.43;;;3.03;;
8171;SDS011;4127;47.908;10.850;2022-10-29T08:30:29;6.93;;;2.90;;
8171;SDS011;4127;47.908;10.850;2022-10-29T08:32:56;6.83;;;3.00;;
8171;SDS011;4127;47.908;10.850;2022-10-29T08:35:24;7.73;;;3.13;;
8171;SDS011;4127;47.908;10.850;2022-10-29T08:37:51;5.77;;;2.93;;
8171;SDS011;4127;47.908;10.850;2022-10-29T08:43:02;4.23;;;2.93;;
8171;SDS011;4127;47.908;10.850;2022-10-29T08:45:47;4.70;;;2.50;;
8171;SDS011;4127;47.908;10.850;2022-10-29T08:50:50;5.03;;;3.13;;
8171;SDS011;4127;47.908;10.850;2022-10-29T08:53:26;6.90;;;2.50;;
8171;SDS011;4127;47.908;10.850;2022-10-29T08:56:10;5.00;;;2.43;;
8171;SDS011;4127;47.908;10.850;2022-10-29T09:01:30;3.50;;;2.10;;
8171;SDS011;4127;47.908;10.850;2022-10-29T09:03:58;9.70;;;3.60;;
8171;SDS011;4127;47.908;10.850;2022-10-29T09:16:51;3.67;;;2.40;;
8171;SDS011;4127;47.908;10.850;2022-10-29T09:22:22;5.07;;;2.40;;
8171;SDS011;4127;47.908;10.850;2022-10-29T09:30:55;6.13;;;2.40;;
8171;SDS011;4127;47.908;10.850;2022-10-29T09:33:31;5.70;;;2.53;;
8171;SDS011;4127;47.908;10.850;2022-10-29T09:35:58;7.97;;;3.03;;
8171;SDS011;4127;47.908;10.850;2022-10-29T09:38:30;4.33;;;2.23;;
8171;SDS011;4127;47.908;10.850;2022-10-29T09:41:01;3.57;;;2.30;;
8171;SDS011;4127;47.908;10.850;2022-10-29T09:49:00;4.10;;;2.67;;
8171;SDS011;4127;47.908;10.850;2022-10-29T09:52:00;4.53;;;2.50;;
8171;SDS011;4127;47.908;10.850;2022-10-29T09:54:31;8.23;;;2.73;;
8171;SDS011;4127;47.908;10.850;2022-10-29T09:56:59;8.50;;;4.50;;
8171;SDS011;4127;47.908;10.850;2022-10-29T09:59:35;5.88;;;2.55;;
8171;SDS011;4127;47.908;10.850;2022-10-29T10:08:10;4.22;;;2.40;;
8171;SDS011;4127;47.908;10.850;2022-10-29T10:10:50;5.90;;;2.40;;
8171;SDS011;4127;47.908;10.850;2022-10-29T10:13:28;2.80;;;1.98;;
8171;SDS011;4127;47.908;10.850;2022-10-29T10:16:04;5.15;;;2.67;;
8171;SDS011;4127;47.908;10.850;2022-10-29T10:23:40;4.75;;;2.47;;
8171;SDS011;4127;47.908;10.850;2022-10-29T10:31:29;3.97;;;2.22;;
8171;SDS011;4127;47.908;10.850;2022-10-29T10:33:56;4.35;;;2.50;;
8171;SDS011;4127;47.908;10.850;2022-10-29T10:36:24;3.05;;;1.85;;
8171;SDS011;4127;47.908;10.850;2022-10-29T10:38:53;6.57;;;2.55;;
8171;SDS011;4127;47.908;10.850;2022-10-29T10:41:24;4.90;;;2.15;;
8171;SDS011;4127;47.908;10.850;2022-10-29T10:43:54;5.60;;;2.28;;
8171;SDS011;4127;47.908;10.850;2022-10-29T10:46:26;3.70;;;2.13;;
8171;SDS011;4127;47.908;10.850;2022-10-29T10:48:57;5.53;;;2.33;;
8171;SDS011;4127;47.908;10.850;2022-10-29T10:51:33;4.65;;;2.38;;
8171;SDS011;4127;47.908;10.850;2022-10-29T10:54:03;6.95;;;2.30;;
8171;SDS011;4127;47.908;10.850;2022-10-29T10:56:55;3.78;;;2.22;;
8171;SDS011;4127;47.908;10.850;2022-10-29T10:59:37;7.47;;;2.95;;
8171;SDS011;4127;47.908;10.850;2022-10-29T11:05:39;6.78;;;2.50;;
8171;SDS011;4127;47.908;10.850;2022-10-29T11:08:21;5.55;;;2.47;;
8171;SDS011;4127;47.908;10.850;2022-10-29T11:10:54;3.33;;;2.22;;
8171;SDS011;4127;47.908;10.850;2022-10-29T11:13:26;4.97;;;2.65;;
8171;SDS011;4127;47.908;10.850;2022-10-29T11:16:03;5.78;;;2.65;;
8171;SDS011;4127;47.908;10.850;2022-10-29T11:19:03;5.05;;;2.55;;
8171;SDS011;4127;47.908;10.850;2022-10-29T11:22:05;5.13;;;2.40;;
8171;SDS011;4127;47.908;10.850;2022-10-29T11:24:54;5.50;;;2.72;;
8171;SDS011;4127;47.908;10.850;2022-10-29T11:27:32;4.28;;;2.20;;
8171;SDS011;4127;47.908;10.850;2022-10-29T11:30:12;6.20;;;2.70;;
8171;SDS011;4127;47.908;10.850;2022-10-29T11:33:29;6.88;;;2.13;;
8171;SDS011;4127;47.908;10.850;2022-10-29T11:35:36;5.22;;;2.35;;
8171;SDS011;4127;47.908;10.850;2022-10-29T11:41:03;5.65;;;2.35;;
8171;SDS011;4127;47.908;10.850;2022-10-29T11:43:31;4.15;;;2.22;;
8171;SDS011;4127;47.908;10.850;2022-10-29T11:49:16;6.82;;;2.63;;
8171;SDS011;4127;47.908;10.850;2022-10-29T12:00:12;6.43;;;3.05;;
8171;SDS011;4127;47.908;10.850;2022-10-29T12:05:52;3.53;;;2.10;;
8171;SDS011;4127;47.908;10.850;2022-10-29T12:11:19;3.53;;;2.08;;
8171;SDS011;4127;47.908;10.850;2022-10-29T12:14:00;7.10;;;2.17;;
8171;SDS011;4127;47.908;10.850;2022-10-29T12:19:47;11.18;;;4.10;;
8171;SDS011;4127;47.908;10.850;2022-10-29T12:22:49;4.60;;;2.72;;
8171;SDS011;4127;47.908;10.850;2022-10-29T12:29:04;7.47;;;2.90;;
8171;SDS011;4127;47.908;10.850;2022-10-29T12:31:30;8.77;;;2.92;;
8171;SDS011;4127;47.908;10.850;2022-10-29T12:34:07;7.22;;;2.80;;
8171;SDS011;4127;47.908;10.850;2022-10-29T12:39:54;9.23;;;2.63;;
8171;SDS011;4127;47.908;10.850;2022-10-29T12:42:25;5.70;;;2.70;;
8171;SDS011;4127;47.908;10.850;2022-10-29T12:47:46;5.75;;;3.15;;
8171;SDS011;4127;47.908;10.850;2022-10-29T12:56:45;6.22;;;3.58;;
8171;SDS011;4127;47.908;10.850;2022-10-29T13:02:44;5.43;;;3.00;;
8171;SDS011;4127;47.908;10.850;2022-10-29T13:15:28;7.22;;;2.70;;
8171;SDS011;4127;47.908;10.850;2022-10-29T13:17:56;4.22;;;2.30;;
8171;SDS011;4127;47.908;10.850;2022-10-29T13:25:59;6.70;;;3.30;;
8171;SDS011;4127;47.908;10.850;2022-10-29T13:41:35;6.88;;;2.30;;
8171;SDS011;4127;47.908;10.850;2022-10-29T13:51:56;6.72;;;2.70;;
8171;SDS011;4127;47.908;10.850;2022-10-29T13:54:31;6.30;;;2.80;;
8171;SDS011;4127;47.908;10.850;2022-10-29T13:57:14;3.22;;;2.30;;
8171;SDS011;4127;47.908;10.850;2022-10-29T14:00:33;4.28;;;2.05;;
8171;SDS011;4127;47.908;10.850;2022-10-29T14:08:23;2.92;;;2.20;;
8171;SDS011;4127;47.908;10.850;2022-10-29T14:10:57;4.72;;;2.30;;
8171;SDS011;4127;47.908;10.850;2022-10-29T14:13:31;3.97;;;2.10;;
8171;SDS011;4127;47.908;10.850;2022-10-29T14:18:39;5.60;;;2.50;;
8171;SDS011;4127;47.908;10.850;2022-10-29T14:26:31;4.78;;;1.90;;
8171;SDS011;4127;47.908;10.850;2022-10-29T14:29:12;3.17;;;2.08;;
8171;SDS011;4127;47.908;10.850;2022-10-29T14:31:46;4.97;;;2.10;;
8171;SDS011;4127;47.908;10.850;2022-10-29T14:34:29;5.15;;;2.47;;
8171;SDS011;4127;47.908;10.850;2022-10-29T14:37:02;4.00;;;2.67;;
8171;SDS011;4127;47.908;10.850;2022-10-29T14:42:52;7.07;;;2.92;;
8171;SDS011;4127;47.908;10.850;2022-10-29T14:45:19;3.65;;;2.58;;
8171;SDS011;4127;47.908;10.850;2022-10-29T14:47:51;5.38;;;2.38;;
8171;SDS011;4127;47.908;10.850;2022-10-29T14:50:24;4.55;;;2.53;;
8171;SDS011;4127;47.908;10.850;2022-10-29T14:52:53;4.93;;;2.50;;
8171;SDS011;4127;47.908;10.850;2022-10-29T14:55:45;4.72;;;2.40;;
8171;SDS011;4127;47.908;10.850;2022-10-29T14:58:15;5.50;;;2.17;;
8171;SDS011;4127;47.908;10.850;2022-10-29T15:00:49;3.08;;;1.92;;
8171;SDS011;4127;47.908;10.850;2022-10-29T15:03:27;3.83;;;1.92;;
8171;SDS011;4127;47.908;10.850;2022-10-29T15:06:10;3.95;;;2.35;;
8171;SDS011;4127;47.908;10.850;2022-10-29T15:08:43;4.65;;;2.25;;
8171;SDS011;4127;47.908;10.850;2022-10-29T15:11:29;5.18;;;2.60;;
8171;SDS011;4127;47.908;10.850;2022-10-29T15:14:22;5.55;;;2.30;;
8171;SDS011;4127;47.908;10.850;2022-10-29T15:16:55;4.55;;;2.50;;
8171;SDS011;4127;47.908;10.850;2022-10-29T15:19:23;5.97;;;3.00;;
8171;SDS011;4127;47.908;10.850;2022-10-29T15:21:50;4.50;;;2.70;;
8171;SDS011;4127;47.908;10.850;2022-10-29T15:24:20;6.45;;;3.10;;
8171;SDS011;4127;47.908;10.850;2022-10-29T15:26:50;4.65;;;2.90;;
8171;SDS011;4127;47.908;10.850;2022-10-29T15:29:25;3.80;;;2.80;;
8171;SDS011;4127;47.908;10.850;2022-10-29T15:32:00;6.53;;;3.20;;
8171;SDS011;4127;47.908;10.850;2022-10-29T15:34:30;5.25;;;2.80;;
8171;SDS011;4127;47.908;10.850;2022-10-29T15:37:13;6.15;;;2.45;;
8171;SDS011;4127;47.908;10.850;2022-10-29T15:42:28;8.02;;;3.45;;
8171;SDS011;4127;47.908;10.850;2022-10-29T15:47:38;8.40;;;3.47;;
8171;SDS011;4127;47.908;10.850;2022-10-29T15:50:11;4.50;;;2.97;;
8171;SDS011;4127;47.908;10.850;2022-10-29T15:52:43;6.25;;;3.28;;
8171;SDS011;4127;47.908;10.850;2022-10-29T15:55:15;7.78;;;3.08;;
8171;SDS011;4127;47.908;10.850;2022-10-29T15:57:52;7.50;;;3.70;;
8171;SDS011;4127;47.908;10.850;2022-10-29T16:00:31;7.80;;;3.80;;
8171;SDS011;4127;47.908;10.850;2022-10-29T16:03:11;10.40;;;3.50;;
8171;SDS011;4127;47.908;10.850;2022-10-29T16:05:40;6.93;;;3.67;;
8171;SDS011;4127;47.908;10.850;2022-10-29T16:08:13;5.73;;;2.93;;
8171;SDS011;4127;47.908;10.850;2022-10-29T16:10:52;6.10;;;3.70;;
8171;SDS011;4127;47.908;10.850;2022-10-29T16:13:19;6.43;;;3.87;;
8171;SDS011;4127;47.908;10.850;2022-10-29T16:15:47;7.13;;;3.80;;
8171;SDS011;4127;47.908;10.850;2022-10-29T16:18:13;9.30;;;4.00;;
8171;SDS011;4127;47.908;10.850;2022-10-29T16:20:40;7.90;;;4.50;;
8171;SDS011;4127;47.908;10.850;2022-10-29T16:23:10;10.13;;;4.10;;
8171;SDS011;4127;47.908;10.850;2022-10-29T16:25:37;7.47;;;3.80;;
8171;SDS011;4127;47.908;10.850;2022-10-29T16:28:05;7.43;;;4.10;;
8171;SDS011;4127;47.908;10.850;2022-10-29T16:30:32;7.00;;;4.63;;
8171;SDS011;4127;47.908;10.850;2022-10-29T16:32:59;6.57;;;4.47;;
8171;SDS011;4127;47.908;10.850;2022-10-29T16:35:27;7.40;;;4.33;;
8171;SDS011;4127;47.908;10.850;2022-10-29T16:37:54;7.80;;;3.43;;
8171;SDS011;4127;47.908;10.850;2022-10-29T16:40:23;6.30;;;3.77;;
8171;SDS011;4127;47.908;10.850;2022-10-29T16:42:51;8.07;;;3.83;;
8171;SDS011;4127;47.908;10.850;2022-10-29T16:45:21;7.27;;;3.80;;
8171;SDS011;4127;47.908;10.850;2022-10-29T16:47:50;5.77;;;3.50;;
8171;SDS011;4127;47.908;10.850;2022-10-29T16:50:21;8.33;;;4.50;;
8171;SDS011;4127;47.908;10.850;2022-10-29T16:52:56;7.03;;;3.70;;
8171;SDS011;4127;47.908;10.850;2022-10-29T16:55:34;7.07;;;4.20;;
8171;SDS011;4127;47.908;10.850;2022-10-29T16:58:04;8.37;;;4.27;;
8171;SDS011;4127;47.908;10.850;2022-10-29T17:00:32;6.33;;;3.50;;
8171;SDS011;4127;47.908;10.850;2022-10-29T17:03:01;7.33;;;3.73;;
8171;SDS011;4127;47.908;10.850;2022-10-29T17:05:36;5.20;;;3.60;;
8171;SDS011;4127;47.908;10.850;2022-10-29T17:08:05;7.00;;;3.63;;
8171;SDS011;4127;47.908;10.850;2022-10-29T17:10:32;9.27;;;4.37;;
8171;SDS011;4127;47.908;10.850;2022-10-29T17:12:59;11.10;;;4.77;;
8171;SDS011;4127;47.908;10.850;2022-10-29T17:15:26;7.70;;;4.13;;
8171;SDS011;4127;47.908;10.850;2022-10-29T17:17:53;8.17;;;4.03;;
8171;SDS011;4127;47.908;10.850;2022-10-29T17:20:21;7.67;;;4.37;;
8171;SDS011;4127;47.908;10.850;2022-10-29T17:22:47;10.73;;;3.73;;
8171;SDS011;4127;47.908;10.850;2022-10-29T17:25:14;6.30;;;3.40;;
8171;SDS011;4127;47.908;10.850;2022-10-29T17:27:41;7.23;;;3.80;;
8171;SDS011;4127;47.908;10.850;2022-10-29T17:30:08;8.30;;;4.00;;
8171;SDS011;4127;47.908;10.850;2022-10-29T17:32:36;7.27;;;3.70;;
8171;SDS011;4127;47.908;10.850;2022-10-29T17:35:03;6.97;;;3.97;;
8171;SDS011;4127;47.908;10.850;2022-10-29T17:37:30;7.37;;;3.90;;
8171;SDS011;4127;47.908;10.850;2022-10-29T17:39:57;5.70;;;3.97;;
8171;SDS011;4127;47.908;10.850;2022-10-29T17:42:32;6.53;;;3.87;;
8171;SDS011;4127;47.908;10.850;2022-10-29T17:44:58;9.50;;;4.43;;
8171;SDS011;4127;47.908;10.850;2022-10-29T17:47:25;9.33;;;4.87;;
8171;SDS011;4127;47.908;10.850;2022-10-29T17:49:52;9.13;;;4.67;;
8171;SDS011;4127;47.908;10.850;2022-10-29T17:52:18;11.67;;;5.20;;
8171;SDS011;4127;47.908;10.850;2022-10-29T17:54:45;8.37;;;5.57;;
8171;SDS011;4127;47.908;10.850;2022-10-29T17:57:12;10.27;;;5.30;;
8171;SDS011;4127;47.908;10.850;2022-10-29T17:59:38;10.13;;;3.73;;
8171;SDS011;4127;47.908;10.850;2022-10-29T18:02:05;8.07;;;4.87;;
8171;SDS011;4127;47.908;10.850;2022-10-29T18:04:35;8.40;;;4.07;;
8171;SDS011;4127;47.908;10.850;2022-10-29T18:07:02;7.40;;;3.77;;
8171;SDS011;4127;47.908;10.850;2022-10-29T18:09:29;6.77;;;3.77;;
8171;SDS011;4127;47.908;10.850;2022-10-29T18:11:56;7.97;;;4.10;;
8171;SDS011;4127;47.908;10.850;2022-10-29T18:14:23;9.97;;;5.53;;
8171;SDS011;4127;47.908;10.850;2022-10-29T18:16:49;9.17;;;4.10;;
8171;SDS011;4127;47.908;10.850;2022-10-29T18:19:16;8.87;;;4.20;;
8171;SDS011;4127;47.908;10.850;2022-10-29T18:21:43;5.17;;;3.93;;
8171;SDS011;4127;47.908;10.850;2022-10-29T18:24:09;9.83;;;3.10;;
8171;SDS011;4127;47.908;10.850;2022-10-29T18:26:36;6.97;;;3.63;;
8171;SDS011;4127;47.908;10.850;2022-10-29T18:29:04;6.27;;;3.57;;
8171;SDS011;4127;47.908;10.850;2022-10-29T18:31:35;7.73;;;4.40;;